Time;durP1;ratioP1;P1;durP2;ratioP2;P2;SDS_P1;SDS_P2;PMS_P1;PMS_P2;Temp;Humidity;BMP_temperature;BMP_pressure;BME280_temperature;BME280_humidity;BME280_pressure;Samples;Min_cycle;Max_cycle;Signal;HPM_P1;HPM_P2
2024/01/25 00:02:09;;;;;;;10.40;2.92;;;;;;;;;;5055387;28;20033;-58
2024/01/25 00:04:35;;;;;;;9.27;3.00;;;;;;;;;;5055761;28;20033;-57
2024/01/25 00:07:01;;;;;;;9.15;2.58;;;;;;;;;;5055248;28;20033;-57
2024/01/25 00:09:27;;;;;;;20.90;3.38;;;;;;;;;;5055304;28;20033;-57
2024/01/25 00:11:52;;;;;;;7.60;2.17;;;;;;;;;;5055016;28;20049;-57
2024/01/25 00:14:18;;;;;;;11.07;2.72;;;;;;;;;;5055294;28;20037;-57
2024/01/25 00:16:44;;;;;;;8.73;2.83;;;;;;;;;;5055548;28;20145;-59
2024/01/25 00:19:10;;;;;;;8.80;3.08;;;;;;;;;;5055446;28;20468;-57
2024/01/25 00:21:41;;;;;;;16.83;2.78;;;;;;;;;;5055553;28;20337;-58
2024/01/25 00:24:07;;;;;;;11.57;2.92;;;;;;;;;;5055237;28;20029;-57
2024/01/25 00:26:33;;;;;;;5.18;2.45;;;;;;;;;;5055155;28;20050;-57
2024/01/25 00:28:59;;;;;;;9.73;3.17;;;;;;;;;;5055221;28;20028;-58
2024/01/25 00:31:25;;;;;;;9.52;2.97;;;;;;;;;;5054788;28;20135;-57
2024/01/25 00:33:51;;;;;;;6.97;1.88;;;;;;;;;;5054587;28;20530;-57
2024/01/25 00:36:17;;;;;;;11.95;2.03;;;;;;;;;;5055004;28;20031;-57
2024/01/25 00:38:43;;;;;;;8.73;2.63;;;;;;;;;;5055144;28;20037;-57
2024/01/25 00:41:10;;;;;;;6.68;2.80;;;;;;;;;;5054833;28;20446;-58
2024/01/25 00:43:36;;;;;;;9.38;3.05;;;;;;;;;;5055270;28;20064;-58
2024/01/25 00:46:02;;;;;;;8.77;2.53;;;;;;;;;;5054505;28;20029;-58
2024/01/25 00:48:31;;;;;;;10.88;3.45;;;;;;;;;;5055294;28;20025;-57
2024/01/25 00:50:57;;;;;;;6.93;2.85;;;;;;;;;;5053884;28;20033;-58
2024/01/25 00:53:23;;;;;;;7.63;1.83;;;;;;;;;;5054270;28;20447;-57
2024/01/25 00:55:49;;;;;;;7.50;2.55;;;;;;;;;;5053846;28;20049;-58
2024/01/25 00:58:15;;;;;;;7.07;2.20;;;;;;;;;;5054559;28;20475;-58
2024/01/25 01:00:41;;;;;;;14.88;4.15;;;;;;;;;;5054216;28;20032;-57
2024/01/25 01:03:07;;;;;;;13.32;2.70;;;;;;;;;;5054431;28;20029;-58
2024/01/25 01:05:34;;;;;;;9.07;2.88;;;;;;;;;;5054647;28;20025;-57
2024/01/25 01:08:00;;;;;;;8.07;1.80;;;;;;;;;;5054923;28;20029;-58
2024/01/25 01:10:26;;;;;;;6.43;2.08;;;;;;;;;;5054608;28;20032;-57
2024/01/25 01:12:55;;;;;;;7.18;2.42;;;;;;;;;;5054504;28;20097;-58
2024/01/25 01:15:21;;;;;;;9.57;2.50;;;;;;;;;;5053896;28;20047;-57
2024/01/25 01:17:47;;;;;;;9.27;2.50;;;;;;;;;;5054803;28;20111;-56
2024/01/25 01:20:13;;;;;;;8.90;2.60;;;;;;;;;;5053630;28;20025;-58
2024/01/25 01:22:39;;;;;;;6.47;1.73;;;;;;;;;;5053935;28;20048;-58
2024/01/25 01:25:05;;;;;;;7.18;2.47;;;;;;;;;;5054435;28;20060;-57
2024/01/25 01:27:31;;;;;;;7.28;3.00;;;;;;;;;;5054733;28;20433;-58
2024/01/25 01:29:57;;;;;;;9.98;3.08;;;;;;;;;;5053830;28;20055;-57
2024/01/25 01:32:23;;;;;;;11.60;2.28;;;;;;;;;;5054377;28;20024;-57
2024/01/25 01:34:48;;;;;;;8.52;2.85;;;;;;;;;;5054255;28;20036;-57
2024/01/25 01:37:14;;;;;;;5.32;2.00;;;;;;;;;;5053809;28;20362;-56
2024/01/25 01:39:43;;;;;;;7.18;2.58;;;;;;;;;;5053703;28;20200;-57
2024/01/25 01:42:09;;;;;;;9.82;2.50;;;;;;;;;;5053656;28;20086;-57
2024/01/25 01:44:35;;;;;;;9.27;2.92;;;;;;;;;;5053621;28;20033;-57
2024/01/25 01:47:01;;;;;;;10.05;3.13;;;;;;;;;;5053612;28;20025;-57
2024/01/25 01:49:27;;;;;;;9.93;2.63;;;;;;;;;;5053891;28;20355;-57
2024/01/25 01:51:53;;;;;;;14.80;3.78;;;;;;;;;;5053627;28;20111;-58
2024/01/25 01:54:19;;;;;;;8.88;2.10;;;;;;;;;;5053277;28;20137;-56
2024/01/25 01:56:45;;;;;;;15.27;2.88;;;;;;;;;;5053813;28;20070;-58
2024/01/25 01:59:11;;;;;;;11.77;3.58;;;;;;;;;;5052321;28;20469;-58
2024/01/25 02:01:38;;;;;;;8.48;1.80;;;;;;;;;;5054634;28;20059;-56
2024/01/25 02:04:04;;;;;;;14.18;2.88;;;;;;;;;;5058204;28;20382;-58
2024/01/25 02:06:30;;;;;;;13.55;3.03;;;;;;;;;;5057528;28;20033;-58
2024/01/25 02:08:58;;;;;;;9.40;3.38;;;;;;;;;;5057831;28;20029;-57
2024/01/25 02:11:24;;;;;;;10.75;2.55;;;;;;;;;;5057417;28;20370;-57
2024/01/25 02:13:50;;;;;;;10.15;2.75;;;;;;;;;;5058033;28;20032;-54
2024/01/25 02:16:17;;;;;;;6.05;2.85;;;;;;;;;;5057039;28;20025;-58
2024/01/25 02:18:43;;;;;;;9.15;2.92;;;;;;;;;;5058141;28;20406;-56
2024/01/25 02:21:09;;;;;;;11.07;2.95;;;;;;;;;;5057252;28;20411;-58
2024/01/25 02:23:35;;;;;;;10.35;3.20;;;;;;;;;;5057724;28;20067;-57
2024/01/25 02:26:01;;;;;;;7.95;2.35;;;;;;;;;;5057179;28;20033;-57
2024/01/25 02:28:27;;;;;;;7.57;2.08;;;;;;;;;;5057747;28;20032;-57
2024/01/25 02:30:53;;;;;;;8.00;1.55;;;;;;;;;;5057064;28;20025;-58
2024/01/25 02:33:19;;;;;;;6.57;2.20;;;;;;;;;;5056732;28;20064;-56
2024/01/25 02:35:45;;;;;;;8.32;2.22;;;;;;;;;;5056962;28;20025;-58
2024/01/25 02:38:11;;;;;;;11.32;2.65;;;;;;;;;;5057545;28;20029;-57
2024/01/25 02:40:37;;;;;;;7.07;2.58;;;;;;;;;;5056615;28;20071;-55
2024/01/25 02:43:03;;;;;;;6.22;2.47;;;;;;;;;;5057364;28;20027;-58
2024/01/25 02:45:28;;;;;;;6.18;1.48;;;;;;;;;;5056825;28;20036;-57
2024/01/25 02:47:54;;;;;;;6.35;2.08;;;;;;;;;;5056859;28;20383;-57
2024/01/25 02:50:20;;;;;;;3.92;1.52;;;;;;;;;;5057557;28;20467;-57
2024/01/25 02:52:46;;;;;;;7.50;2.30;;;;;;;;;;5056378;28;20079;-57
2024/01/25 02:55:12;;;;;;;5.60;1.77;;;;;;;;;;5056544;28;20417;-58
2024/01/25 02:57:38;;;;;;;8.70;2.55;;;;;;;;;;5056588;28;20108;-58
2024/01/25 03:00:04;;;;;;;8.40;2.80;;;;;;;;;;5056523;28;20017;-57
2024/01/25 03:02:31;;;;;;;8.55;3.05;;;;;;;;;;5056753;28;20025;-57
2024/01/25 03:04:57;;;;;;;9.18;2.70;;;;;;;;;;5056425;28;20036;-56
2024/01/25 03:07:23;;;;;;;4.25;1.63;;;;;;;;;;5057007;28;20025;-57
2024/01/25 03:09:49;;;;;;;7.88;2.75;;;;;;;;;;5056351;28;20029;-58
2024/01/25 03:12:15;;;;;;;8.15;2.30;;;;;;;;;;5056269;28;20424;-58
2024/01/25 03:14:40;;;;;;;7.18;2.85;;;;;;;;;;5056409;28;20033;-57
2024/01/25 03:17:06;;;;;;;6.38;1.95;;;;;;;;;;5055970;28;20404;-59
2024/01/25 03:19:33;;;;;;;3.60;1.60;;;;;;;;;;5056723;28;20021;-58
2024/01/25 03:22:01;;;;;;;4.80;1.98;;;;;;;;;;5056264;28;20118;-58
2024/01/25 03:24:27;;;;;;;10.32;2.97;;;;;;;;;;5056619;28;20033;-57
2024/01/25 03:26:53;;;;;;;10.23;2.50;;;;;;;;;;5056876;28;20061;-58
2024/01/25 03:29:19;;;;;;;3.63;1.73;;;;;;;;;;5056895;28;20071;-57
2024/01/25 03:31:45;;;;;;;9.52;3.05;;;;;;;;;;5055899;28;20025;-58
2024/01/25 03:34:11;;;;;;;13.15;2.55;;;;;;;;;;5055889;28;20116;-57
2024/01/25 03:36:40;;;;;;;12.55;3.67;;;;;;;;;;5055929;28;20065;-58
2024/01/25 03:39:07;;;;;;;5.90;2.30;;;;;;;;;;5056185;28;20348;-57
2024/01/25 03:41:33;;;;;;;10.57;3.25;;;;;;;;;;5056327;28;20341;-56
2024/01/25 03:43:59;;;;;;;8.10;2.20;;;;;;;;;;5055763;28;20029;-58
2024/01/25 03:46:24;;;;;;;8.77;2.97;;;;;;;;;;5055717;28;20482;-57
2024/01/25 03:48:50;;;;;;;14.43;2.28;;;;;;;;;;5056201;28;20033;-57
2024/01/25 03:51:20;;;;;;;6.05;1.73;;;;;;;;;;5055593;28;20029;-58
2024/01/25 03:53:45;;;;;;;4.40;1.33;;;;;;;;;;5055489;28;20116;-58
2024/01/25 03:56:17;;;;;;;10.18;2.22;;;;;;;;;;5055058;28;20091;-57
2024/01/25 03:58:43;;;;;;;6.15;2.17;;;;;;;;;;5056076;28;20059;-57
2024/01/25 04:01:09;;;;;;;6.78;2.47;;;;;;;;;;5055388;28;20029;-57
2024/01/25 04:03:35;;;;;;;5.50;2.25;;;;;;;;;;5055335;28;20031;-58
2024/01/25 04:06:01;;;;;;;10.38;2.50;;;;;;;;;;5055558;28;20025;-58
2024/01/25 04:08:27;;;;;;;7.45;2.05;;;;;;;;;;5055282;28;20530;-56
2024/01/25 04:10:53;;;;;;;8.43;2.05;;;;;;;;;;5054906;28;20060;-58
2024/01/25 04:13:19;;;;;;;7.78;2.28;;;;;;;;;;5055557;28;20071;-58
2024/01/25 04:15:45;;;;;;;12.25;3.00;;;;;;;;;;5054854;28;20443;-57
2024/01/25 04:18:11;;;;;;;16.50;2.75;;;;;;;;;;5055970;28;20402;-57
2024/01/25 04:20:37;;;;;;;10.93;2.67;;;;;;;;;;5055029;28;20029;-58
2024/01/25 04:23:03;;;;;;;10.30;2.63;;;;;;;;;;5054968;28;20031;-58
2024/01/25 04:25:29;;;;;;;16.55;3.53;;;;;;;;;;5054946;28;20029;-57
2024/01/25 04:27:55;;;;;;;6.45;2.38;;;;;;;;;;5055237;28;20092;-55
2024/01/25 04:30:21;;;;;;;10.48;2.75;;;;;;;;;;5054796;28;20025;-57
2024/01/25 04:32:47;;;;;;;7.65;2.50;;;;;;;;;;5054727;28;20025;-57
2024/01/25 04:35:13;;;;;;;7.60;2.08;;;;;;;;;;5054647;28;20033;-57
2024/01/25 04:37:39;;;;;;;8.32;2.42;;;;;;;;;;5055271;28;20024;-58
2024/01/25 04:40:05;;;;;;;6.53;1.75;;;;;;;;;;5055411;28;20070;-58
2024/01/25 04:42:31;;;;;;;4.95;1.85;;;;;;;;;;5054631;28;20061;-57
2024/01/25 04:44:57;;;;;;;9.20;2.25;;;;;;;;;;5055122;28;20035;-57
2024/01/25 04:47:23;;;;;;;6.82;2.28;;;;;;;;;;5054489;28;20111;-57
2024/01/25 04:49:49;;;;;;;12.63;3.15;;;;;;;;;;5054492;28;20047;-58
2024/01/25 04:52:15;;;;;;;9.73;2.55;;;;;;;;;;5054192;28;20029;-58
2024/01/25 04:54:41;;;;;;;9.90;2.53;;;;;;;;;;5054417;28;20063;-58
2024/01/25 04:57:07;;;;;;;9.80;3.03;;;;;;;;;;5055187;28;20382;-58
2024/01/25 04:59:33;;;;;;;7.07;2.10;;;;;;;;;;5055131;28;20336;-58
2024/01/25 05:01:59;;;;;;;9.45;2.70;;;;;;;;;;5054186;28;20044;-57
2024/01/25 05:04:25;;;;;;;5.10;1.83;;;;;;;;;;5054352;28;20029;-58
2024/01/25 05:06:51;;;;;;;11.32;2.70;;;;;;;;;;5054755;28;20090;-58
2024/01/25 05:09:17;;;;;;;7.05;2.38;;;;;;;;;;5054343;28;20108;-57
2024/01/25 05:11:43;;;;;;;8.77;2.15;;;;;;;;;;5054322;28;20052;-57
2024/01/25 05:14:09;;;;;;;15.10;2.92;;;;;;;;;;5054054;28;20033;-58
2024/01/25 05:16:35;;;;;;;9.00;1.85;;;;;;;;;;5054061;28;20174;-57
2024/01/25 05:19:01;;;;;;;11.98;3.10;;;;;;;;;;5054090;28;20455;-58
2024/01/25 05:21:27;;;;;;;4.35;2.00;;;;;;;;;;5054065;28;20032;-57
2024/01/25 05:23:53;;;;;;;10.75;2.60;;;;;;;;;;5053670;28;20036;-56
2024/01/25 05:26:19;;;;;;;6.50;2.65;;;;;;;;;;5054480;28;20029;-57
2024/01/25 05:28:45;;;;;;;11.20;2.83;;;;;;;;;;5054750;28;20029;-57
2024/01/25 05:31:14;;;;;;;9.10;2.55;;;;;;;;;;5053536;28;20036;-57
2024/01/25 05:33:40;;;;;;;9.10;2.88;;;;;;;;;;5053783;28;20032;-56
2024/01/25 05:36:07;;;;;;;8.90;2.63;;;;;;;;;;5053609;28;20033;-58
2024/01/25 05:38:32;;;;;;;8.80;3.40;;;;;;;;;;5053955;28;20509;-58
2024/01/25 05:40:59;;;;;;;12.13;2.95;;;;;;;;;;5053930;28;20025;-59
2024/01/25 05:43:25;;;;;;;10.20;2.97;;;;;;;;;;5053838;28;20025;-59
2024/01/25 05:45:51;;;;;;;9.00;2.25;;;;;;;;;;5053258;28;20036;-59
2024/01/25 05:48:17;;;;;;;15.68;3.75;;;;;;;;;;5053782;28;20025;-55
2024/01/25 05:50:43;;;;;;;8.35;2.60;;;;;;;;;;5053560;28;20033;-57
2024/01/25 05:53:09;;;;;;;13.00;3.17;;;;;;;;;;5053894;28;20047;-57
2024/01/25 05:55:35;;;;;;;8.48;2.80;;;;;;;;;;5054238;28;20144;-57
2024/01/25 05:58:01;;;;;;;14.20;3.33;;;;;;;;;;5053456;28;20025;-57
2024/01/25 06:00:28;;;;;;;9.90;2.97;;;;;;;;;;5053730;28;20032;-58
2024/01/25 06:02:54;;;;;;;5.03;2.38;;;;;;;;;;5053489;28;20025;-58
2024/01/25 06:05:20;;;;;;;8.02;2.58;;;;;;;;;;5053333;28;20163;-57
2024/01/25 06:07:46;;;;;;;8.73;2.90;;;;;;;;;;5053969;28;20387;-55
2024/01/25 06:10:12;;;;;;;8.95;2.92;;;;;;;;;;5053417;28;20025;-56
2024/01/25 06:12:38;;;;;;;9.27;2.70;;;;;;;;;;5053895;28;20032;-54
2024/01/25 06:15:27;;;;;;;8.95;3.03;;;;;;;;;;5053361;28;20146;-57
2024/01/25 06:17:59;;;;;;;14.15;3.33;;;;;;;;;;5047897;28;20045;-56
2024/01/25 06:20:25;;;;;;;9.73;3.08;;;;;;;;;;5053322;28;20029;-57
2024/01/25 06:22:51;;;;;;;7.22;3.10;;;;;;;;;;5052898;28;20074;-53
2024/01/25 06:25:17;;;;;;;10.18;2.67;;;;;;;;;;5053206;28;20033;-56
2024/01/25 06:27:43;;;;;;;9.02;2.92;;;;;;;;;;5053899;28;20451;-54
2024/01/25 06:30:10;;;;;;;11.70;3.75;;;;;;;;;;5052907;28;20036;-56
2024/01/25 06:32:37;;;;;;;11.40;2.83;;;;;;;;;;5053353;28;20055;-51
2024/01/25 06:35:04;;;;;;;11.48;3.67;;;;;;;;;;5052919;28;20044;-53
2024/01/25 06:37:30;;;;;;;10.88;3.58;;;;;;;;;;5053737;28;20033;-56
2024/01/25 06:39:56;;;;;;;10.85;3.33;;;;;;;;;;5052940;28;20115;-57
2024/01/25 06:42:22;;;;;;;5.00;2.38;;;;;;;;;;5053137;28;20029;-54
2024/01/25 06:44:48;;;;;;;19.13;3.30;;;;;;;;;;5053515;28;20033;-56
2024/01/25 06:47:14;;;;;;;5.68;3.13;;;;;;;;;;5053101;28;20051;-54
2024/01/25 06:49:40;;;;;;;8.32;2.95;;;;;;;;;;5057565;28;20021;-52
2024/01/25 06:52:06;;;;;;;7.47;2.00;;;;;;;;;;5056980;28;20028;-52
2024/01/25 06:54:32;;;;;;;10.80;2.85;;;;;;;;;;5056303;28;20488;-54
2024/01/25 06:56:58;;;;;;;8.45;3.40;;;;;;;;;;5056953;28;20028;-56
2024/01/25 06:59:24;;;;;;;12.57;2.67;;;;;;;;;;5057132;28;20041;-56
2024/01/25 07:01:50;;;;;;;9.52;2.50;;;;;;;;;;5057147;28;20033;-56
2024/01/25 07:04:16;;;;;;;9.63;2.53;;;;;;;;;;5056303;28;20029;-53
2024/01/25 07:06:42;;;;;;;7.95;2.70;;;;;;;;;;5056088;28;20070;-53
2024/01/25 07:09:08;;;;;;;13.27;3.00;;;;;;;;;;5056503;28;20417;-55
2024/01/25 07:11:34;;;;;;;12.07;3.17;;;;;;;;;;5056246;28;20035;-56
2024/01/25 07:14:00;;;;;;;5.97;2.63;;;;;;;;;;5056190;28;20025;-55
2024/01/25 07:16:26;;;;;;;12.48;3.88;;;;;;;;;;5056121;28;20091;-53
2024/01/25 07:18:52;;;;;;;7.35;3.00;;;;;;;;;;5056794;28;20021;-55
2024/01/25 07:21:18;;;;;;;11.40;2.90;;;;;;;;;;5056185;28;20348;-55
2024/01/25 07:23:44;;;;;;;4.72;2.38;;;;;;;;;;5056624;28;20025;-55
2024/01/25 07:26:10;;;;;;;9.40;2.65;;;;;;;;;;5056386;28;20476;-55
2024/01/25 07:28:36;;;;;;;14.70;3.35;;;;;;;;;;5056628;28;20074;-56
2024/01/25 07:31:02;;;;;;;11.95;2.80;;;;;;;;;;5056032;28;20025;-55
2024/01/25 07:33:28;;;;;;;20.77;3.75;;;;;;;;;;5055949;28;20104;-56
2024/01/25 07:35:55;;;;;;;5.28;2.42;;;;;;;;;;5055641;28;20484;-54
2024/01/25 07:38:21;;;;;;;9.90;2.95;;;;;;;;;;5056464;28;20116;-51
2024/01/25 07:40:47;;;;;;;9.15;2.80;;;;;;;;;;5055784;28;20025;-51
2024/01/25 07:43:13;;;;;;;6.15;2.58;;;;;;;;;;5055462;28;20029;-53
2024/01/25 07:45:40;;;;;;;17.75;3.53;;;;;;;;;;5055735;28;20374;-55
2024/01/25 07:48:06;;;;;;;11.43;2.15;;;;;;;;;;5056549;28;20079;-53
2024/01/25 07:50:32;;;;;;;12.27;2.53;;;;;;;;;;5055644;28;20033;-56
2024/01/25 07:53:00;;;;;;;7.47;2.70;;;;;;;;;;5055561;28;20394;-56
2024/01/25 07:55:26;;;;;;;13.00;3.28;;;;;;;;;;5054982;28;20052;-56
2024/01/25 07:57:52;;;;;;;11.93;3.17;;;;;;;;;;5055572;28;20116;-52
2024/01/25 08:00:18;;;;;;;9.15;3.30;;;;;;;;;;5054963;28;20321;-56
2024/01/25 08:02:44;;;;;;;8.43;1.73;;;;;;;;;;5055855;28;20036;-55
2024/01/25 08:05:11;;;;;;;17.30;3.20;;;;;;;;;;5055860;28;20060;-50
2024/01/25 08:07:37;;;;;;;7.93;2.30;;;;;;;;;;5056189;28;20104;-54
2024/01/25 08:10:04;;;;;;;10.40;3.30;;;;;;;;;;5055282;28;20032;-55
2024/01/25 08:12:30;;;;;;;8.63;2.78;;;;;;;;;;5055824;28;20025;-54
2024/01/25 08:14:56;;;;;;;13.63;3.70;;;;;;;;;;5055026;28;20090;-52
2024/01/25 08:17:22;;;;;;;6.45;2.53;;;;;;;;;;5054842;28;20428;-56
2024/01/25 08:19:48;;;;;;;9.88;3.78;;;;;;;;;;5055617;28;20029;-56
2024/01/25 08:22:13;;;;;;;12.15;2.42;;;;;;;;;;5055027;28;20167;-55
2024/01/25 08:24:40;;;;;;;9.13;2.90;;;;;;;;;;5054962;28;20036;-56
2024/01/25 08:27:07;;;;;;;7.20;2.30;;;;;;;;;;5054982;28;20379;-56
2024/01/25 08:29:33;;;;;;;10.52;2.85;;;;;;;;;;5055573;28;20064;-54
2024/01/25 08:31:59;;;;;;;5.65;2.47;;;;;;;;;;5055304;28;20360;-56
2024/01/25 08:34:25;;;;;;;9.07;2.70;;;;;;;;;;5054504;28;20033;-56
2024/01/25 08:36:51;;;;;;;13.68;3.17;;;;;;;;;;5054722;28;20029;-55
2024/01/25 08:39:17;;;;;;;8.65;3.13;;;;;;;;;;5055311;28;20028;-54
2024/01/25 08:41:45;;;;;;;6.47;2.88;;;;;;;;;;5054980;28;20397;-56
2024/01/25 08:44:11;;;;;;;14.32;3.25;;;;;;;;;;5054524;28;20048;-53
2024/01/25 08:46:37;;;;;;;10.18;3.35;;;;;;;;;;5054901;28;20370;-53
2024/01/25 08:49:08;;;;;;;10.30;3.38;;;;;;;;;;5054547;28;20056;-56
2024/01/25 08:51:34;;;;;;;10.00;4.10;;;;;;;;;;5055159;28;20021;-57
2024/01/25 08:54:00;;;;;;;10.80;3.00;;;;;;;;;;5054408;28;20474;-56
2024/01/25 08:56:26;;;;;;;10.50;2.97;;;;;;;;;;5053907;28;20049;-54
2024/01/25 08:58:53;;;;;;;11.40;2.53;;;;;;;;;;5054912;28;20041;-54
2024/01/25 09:01:19;;;;;;;9.30;3.08;;;;;;;;;;5054105;28;20147;-53
2024/01/25 09:03:45;;;;;;;14.30;3.75;;;;;;;;;;5054301;28;20025;-50
2024/01/25 09:06:12;;;;;;;16.05;3.05;;;;;;;;;;5055045;28;20066;-55
2024/01/25 09:08:38;;;;;;;4.60;2.80;;;;;;;;;;5054610;28;20037;-56
2024/01/25 09:11:04;;;;;;;5.32;2.25;;;;;;;;;;5054325;28;20021;-54
2024/01/25 09:13:32;;;;;;;10.52;2.78;;;;;;;;;;5054740;28;20143;-54
2024/01/25 09:15:58;;;;;;;4.68;2.40;;;;;;;;;;5054040;28;20447;-53
2024/01/25 09:18:24;;;;;;;10.18;3.05;;;;;;;;;;5054671;28;20021;-56
2024/01/25 09:20:51;;;;;;;11.35;2.60;;;;;;;;;;5053949;28;20040;-57
2024/01/25 09:23:17;;;;;;;7.88;2.50;;;;;;;;;;5054658;28;20056;-57
2024/01/25 09:25:44;;;;;;;4.97;2.30;;;;;;;;;;5054303;28;20040;-57
2024/01/25 09:28:11;;;;;;;9.10;2.40;;;;;;;;;;5054520;28;20068;-57
2024/01/25 09:30:37;;;;;;;4.13;1.75;;;;;;;;;;5053906;28;20027;-56
2024/01/25 09:33:04;;;;;;;8.43;2.58;;;;;;;;;;5054731;28;20090;-54
2024/01/25 09:35:30;;;;;;;12.63;3.78;;;;;;;;;;5054327;28;20033;-56
2024/01/25 09:37:55;;;;;;;6.07;1.90;;;;;;;;;;5054160;28;20032;-55
2024/01/25 09:40:21;;;;;;;20.13;3.90;;;;;;;;;;5053694;28;20028;-56
2024/01/25 09:42:48;;;;;;;5.85;1.98;;;;;;;;;;5053843;28;20573;-54
2024/01/25 09:45:17;;;;;;;7.38;2.92;;;;;;;;;;5053819;28;20033;-54
2024/01/25 09:47:44;;;;;;;12.57;2.58;;;;;;;;;;5054284;28;20039;-58
2024/01/25 09:50:10;;;;;;;4.10;1.75;;;;;;;;;;5053589;28;20079;-55
2024/01/25 09:52:36;;;;;;;9.20;2.55;;;;;;;;;;5053310;28;20029;-55
2024/01/25 09:55:02;;;;;;;9.20;2.70;;;;;;;;;;5054271;28;20140;-57
2024/01/25 09:57:28;;;;;;;6.05;2.80;;;;;;;;;;5053293;28;20033;-54
2024/01/25 09:59:55;;;;;;;9.75;2.25;;;;;;;;;;5053612;28;20032;-56
2024/01/25 10:02:21;;;;;;;9.32;2.08;;;;;;;;;;5054097;28;20025;-54
2024/01/25 10:04:50;;;;;;;8.10;3.13;;;;;;;;;;5053458;28;20029;-57
2024/01/25 10:07:16;;;;;;;8.15;2.00;;;;;;;;;;5053520;28;20017;-57
2024/01/25 10:09:43;;;;;;;8.32;1.92;;;;;;;;;;5053761;28;20025;-55
2024/01/25 10:12:09;;;;;;;9.00;2.17;;;;;;;;;;5053236;28;20021;-54
2024/01/25 10:14:35;;;;;;;5.75;2.13;;;;;;;;;;5053265;28;20029;-55
2024/01/25 10:17:01;;;;;;;6.13;2.58;;;;;;;;;;5053473;28;20522;-55
2024/01/25 10:19:28;;;;;;;12.15;2.83;;;;;;;;;;5054169;28;20025;-52
2024/01/25 10:21:53;;;;;;;6.03;2.47;;;;;;;;;;5053824;28;20363;-53
2024/01/25 10:24:19;;;;;;;11.02;2.58;;;;;;;;;;5057170;28;20121;-54
2024/01/25 10:26:45;;;;;;;9.98;2.13;;;;;;;;;;5057329;28;20052;-55
2024/01/25 10:29:11;;;;;;;4.00;1.67;;;;;;;;;;5057218;28;20382;-55
2024/01/25 10:31:42;;;;;;;6.63;2.80;;;;;;;;;;5056894;28;20096;-54
2024/01/25 10:34:12;;;;;;;6.93;1.70;;;;;;;;;;5056949;28;20463;-53
2024/01/25 10:36:38;;;;;;;10.33;4.33;;;;;;;;;;5057564;28;20479;-55
2024/01/25 10:39:07;;;;;;;8.27;2.08;;;;;;;;;;5057623;28;20023;-55
2024/01/25 10:41:33;;;;;;;4.57;2.58;;;;;;;;;;5057015;28;20017;-51
2024/01/25 10:44:00;;;;;;;5.85;1.85;;;;;;;;;;5056983;28;20112;-55
2024/01/25 10:46:27;;;;;;;7.40;2.60;;;;;;;;;;5056899;28;20074;-55
2024/01/25 10:48:54;;;;;;;7.25;2.70;;;;;;;;;;5057053;28;20021;-54
2024/01/25 10:51:20;;;;;;;7.93;2.13;;;;;;;;;;5057367;28;20134;-54
2024/01/25 10:53:46;;;;;;;12.38;2.50;;;;;;;;;;5056971;28;20482;-54
2024/01/25 10:56:13;;;;;;;5.18;2.15;;;;;;;;;;5057688;28;20127;-53
2024/01/25 10:58:41;;;;;;;9.60;2.45;;;;;;;;;;5057305;28;20375;-53
2024/01/25 11:01:14;;;;;;;7.80;1.85;;;;;;;;;;5056721;28;20029;-54
2024/01/25 11:03:41;;;;;;;7.20;1.88;;;;;;;;;;5057108;28;20036;-55
2024/01/25 11:06:10;;;;;;;4.50;1.23;;;;;;;;;;5057029;28;20020;-54
2024/01/25 11:08:39;;;;;;;6.38;2.80;;;;;;;;;;5056479;28;20032;-55
2024/01/25 11:11:09;;;;;;;8.38;2.33;;;;;;;;;;5056479;28;20049;-56
2024/01/25 11:13:35;;;;;;;5.00;1.85;;;;;;;;;;5055992;28;20056;-56
2024/01/25 11:16:17;;;;;;;7.93;2.00;;;;;;;;;;5056422;28;20414;-55
2024/01/25 11:18:49;;;;;;;8.38;2.60;;;;;;;;;;5056213;28;20029;-52
2024/01/25 11:21:27;;;;;;;4.13;2.17;;;;;;;;;;5056193;28;20122;-56
2024/01/25 11:24:00;;;;;;;6.63;2.08;;;;;;;;;;5055922;28;20497;-54
2024/01/25 11:26:26;;;;;;;2.35;1.23;;;;;;;;;;5056444;28;20115;-55
2024/01/25 11:28:52;;;;;;;3.85;1.88;;;;;;;;;;5056174;28;20025;-54
2024/01/25 11:31:19;;;;;;;4.75;1.95;;;;;;;;;;5056070;28;20024;-56
2024/01/25 11:33:45;;;;;;;10.30;2.25;;;;;;;;;;5055668;28;20463;-53
2024/01/25 11:36:11;;;;;;;11.93;2.63;;;;;;;;;;5056016;28;20028;-54
2024/01/25 11:38:37;;;;;;;8.40;2.10;;;;;;;;;;5056586;28;20370;-55
2024/01/25 11:41:03;;;;;;;10.32;1.52;;;;;;;;;;5055553;28;20444;-55
2024/01/25 11:43:29;;;;;;;4.68;1.38;;;;;;;;;;5055966;28;20100;-56
2024/01/25 11:45:55;;;;;;;5.50;2.13;;;;;;;;;;5055514;28;20352;-56
2024/01/25 11:48:21;;;;;;;6.20;2.20;;;;;;;;;;5055480;28;20025;-55
2024/01/25 11:50:47;;;;;;;6.32;2.00;;;;;;;;;;5055424;28;20083;-57
2024/01/25 11:53:13;;;;;;;12.68;2.53;;;;;;;;;;5056453;28;20028;-53
2024/01/25 11:55:39;;;;;;;8.75;2.58;;;;;;;;;;5055661;28;20061;-57
2024/01/25 11:58:05;;;;;;;5.50;1.67;;;;;;;;;;5056137;28;20082;-51
2024/01/25 12:00:31;;;;;;;3.97;1.70;;;;;;;;;;5055783;28;20029;-56
2024/01/25 12:02:57;;;;;;;5.78;1.40;;;;;;;;;;5056075;28;20033;-55
2024/01/25 12:05:23;;;;;;;9.27;1.90;;;;;;;;;;5055489;28;20235;-55
2024/01/25 12:07:49;;;;;;;4.88;1.30;;;;;;;;;;5055262;28;20104;-53
2024/01/25 12:10:18;;;;;;;4.10;1.85;;;;;;;;;;5055130;28;20021;-56
2024/01/25 12:12:44;;;;;;;5.28;1.17;;;;;;;;;;5055268;28;20075;-56
2024/01/25 12:15:10;;;;;;;7.30;2.20;;;;;;;;;;5055538;28;20048;-56
2024/01/25 12:17:36;;;;;;;6.13;1.48;;;;;;;;;;5055801;28;20033;-56
2024/01/25 12:20:03;;;;;;;3.88;1.15;;;;;;;;;;5055138;28;20029;-55
2024/01/25 12:22:29;;;;;;;4.82;1.52;;;;;;;;;;5055650;28;20467;-55
2024/01/25 12:24:55;;;;;;;3.58;1.13;;;;;;;;;;5055630;28;20064;-54
2024/01/25 12:27:22;;;;;;;5.22;1.70;;;;;;;;;;5055245;28;20029;-55
2024/01/25 12:29:48;;;;;;;4.75;1.50;;;;;;;;;;5054706;28;20492;-55
2024/01/25 12:32:16;;;;;;;4.20;1.25;;;;;;;;;;5055455;28;20025;-55
2024/01/25 12:34:43;;;;;;;4.55;1.63;;;;;;;;;;5054780;28;20021;-52
2024/01/25 12:37:09;;;;;;;5.90;2.08;;;;;;;;;;5054473;28;20463;-56
2024/01/25 12:39:35;;;;;;;7.00;1.75;;;;;;;;;;5055695;28;20040;-56
2024/01/25 12:42:01;;;;;;;4.15;1.35;;;;;;;;;;5055080;28;20339;-56
2024/01/25 12:44:27;;;;;;;3.67;1.02;;;;;;;;;;5054736;28;20112;-53
2024/01/25 12:46:53;;;;;;;6.22;1.23;;;;;;;;;;5054103;28;20028;-56
2024/01/25 12:49:22;;;;;;;5.68;1.38;;;;;;;;;;5054637;28;20021;-56
2024/01/25 12:51:48;;;;;;;2.90;1.33;;;;;;;;;;5054502;28;20017;-56
2024/01/25 12:54:14;;;;;;;3.22;1.02;;;;;;;;;;5053916;28;20066;-56
2024/01/25 12:56:40;;;;;;;3.72;1.25;;;;;;;;;;5054506;28;20035;-57
2024/01/25 12:59:06;;;;;;;3.58;1.42;;;;;;;;;;5055321;28;20029;-56
2024/01/25 13:01:32;;;;;;;5.78;3.13;;;;;;;;;;5054389;28;20024;-56
2024/01/25 13:03:58;;;;;;;5.78;1.92;;;;;;;;;;5054074;28;20090;-54
2024/01/25 13:06:24;;;;;;;5.03;1.85;;;;;;;;;;5054273;28;20056;-54
2024/01/25 13:08:50;;;;;;;9.68;1.45;;;;;;;;;;5054823;28;20025;-57
2024/01/25 13:11:16;;;;;;;3.65;1.60;;;;;;;;;;5054170;28;20059;-56
2024/01/25 13:13:43;;;;;;;5.43;1.17;;;;;;;;;;5054095;28;20074;-57
2024/01/25 13:16:09;;;;;;;8.02;2.05;;;;;;;;;;5054290;28;20090;-56
2024/01/25 13:18:35;;;;;;;4.00;1.27;;;;;;;;;;5054101;28;20115;-57
2024/01/25 13:21:01;;;;;;;5.25;2.15;;;;;;;;;;5054110;28;20059;-57
2024/01/25 13:23:27;;;;;;;3.67;1.25;;;;;;;;;;5054000;28;20074;-57
2024/01/25 13:25:53;;;;;;;2.92;1.40;;;;;;;;;;5054344;28;20029;-57
2024/01/25 13:28:19;;;;;;;2.03;0.90;;;;;;;;;;5054556;28;20033;-56
2024/01/25 13:30:45;;;;;;;4.38;1.30;;;;;;;;;;5054247;28;20407;-56
2024/01/25 13:33:11;;;;;;;4.32;1.30;;;;;;;;;;5053780;28;20521;-57
2024/01/25 13:35:37;;;;;;;4.13;2.10;;;;;;;;;;5053753;28;20060;-56
2024/01/25 13:38:03;;;;;;;4.72;1.65;;;;;;;;;;5054172;28;20079;-55
2024/01/25 13:40:30;;;;;;;5.60;1.80;;;;;;;;;;5054318;28;20097;-56
2024/01/25 13:42:56;;;;;;;5.90;2.05;;;;;;;;;;5053782;28;20356;-57
2024/01/25 13:45:22;;;;;;;7.10;1.95;;;;;;;;;;5054444;28;20039;-55
2024/01/25 13:47:48;;;;;;;7.10;2.05;;;;;;;;;;5054296;28;20028;-56
2024/01/25 13:50:14;;;;;;;5.97;1.63;;;;;;;;;;5053321;28;20036;-56
2024/01/25 13:52:40;;;;;;;2.60;1.48;;;;;;;;;;5053655;28;20025;-55
2024/01/25 13:55:06;;;;;;;7.13;2.42;;;;;;;;;;5053639;28;20521;-56
2024/01/25 13:57:32;;;;;;;4.00;1.42;;;;;;;;;;5055744;28;20025;-55
2024/01/25 13:59:58;;;;;;;6.65;1.42;;;;;;;;;;5058625;28;20029;-57
2024/01/25 14:02:24;;;;;;;3.75;1.15;;;;;;;;;;5057797;28;20074;-55
2024/01/25 14:04:50;;;;;;;4.65;1.52;;;;;;;;;;5057717;28;20095;-56
2024/01/25 14:07:20;;;;;;;5.43;1.17;;;;;;;;;;5057687;28;20029;-56
2024/01/25 14:09:46;;;;;;;9.32;1.95;;;;;;;;;;5057775;28;20025;-56
2024/01/25 14:12:12;;;;;;;3.85;1.58;;;;;;;;;;5057257;28;20028;-55
2024/01/25 14:14:39;;;;;;;3.22;1.05;;;;;;;;;;5058262;28;20111;-57
2024/01/25 14:17:05;;;;;;;4.45;1.52;;;;;;;;;;5057547;28;20078;-56
2024/01/25 14:19:31;;;;;;;3.83;1.45;;;;;;;;;;5057494;28;20021;-55
2024/01/25 14:21:56;;;;;;;3.55;1.25;;;;;;;;;;5057511;28;20577;-53
2024/01/25 14:24:22;;;;;;;6.05;1.70;;;;;;;;;;5057981;28;20025;-54
2024/01/25 14:26:48;;;;;;;9.52;2.05;;;;;;;;;;5057269;28;20027;-55
2024/01/25 14:29:14;;;;;;;5.93;1.42;;;;;;;;;;5057391;28;20045;-55
2024/01/25 14:31:40;;;;;;;2.75;1.17;;;;;;;;;;5057483;28;20039;-56
2024/01/25 14:34:08;;;;;;;4.47;2.00;;;;;;;;;;5057077;28;20028;-57